Flight Track Log - Related Links

Times and Time Zones

All times are in EST time to prevent confusion due to time zone crossing. See the N356TB flight status page for this flight to view local times or setup timezone preferences in your user account.

Time Position Orientation Groundspeed Altitude Reporting Facility
EST Latitude Longitude Course Direction KTS MPH feet Rate Location/Type
Mon 04:04:30 PM 36.3694 -82.1856 320° Northwest 125 144 3,400  Level Indianapolis Center
Mon 04:05:32 PM 36.3969 -82.2208 314° West 121 139 4,300 677 Climbing Indianapolis Center
Mon 04:06:34 PM 36.4258 -82.2475 323° Northwest 125 144 4,800 581 Climbing Indianapolis Center
Mon 04:07:36 PM 36.4550 -82.2778 320° Northwest 131 151 5,500 581 Climbing Indianapolis Center
Mon 04:08:38 PM 36.4839 -82.3086 319° Northwest 134 154 6,000 581 Climbing Indianapolis Center
Mon 04:09:00 PM 36.5161 -82.3212 320° Northwest  Level Estimated
Mon 04:09:40 PM 36.5136 -82.3378 322° Northwest 136 157 6,700  Level Indianapolis Center
Mon 04:10:42 PM 36.5458 -82.3686 322° Northwest 129 148 7,300 484 Climbing Indianapolis Center
Mon 04:11:44 PM 36.5717 -82.3950 321° Northwest 122 140 7,700 290 Climbing Indianapolis Center
Mon 04:12:46 PM 36.5992 -82.4231 321° Northwest 125 144 7,900 97 Climbing Indianapolis Center
Mon 04:13:48 PM 36.6314 -82.4547 322° Northwest 142 163 7,900  Level Indianapolis Center
Mon 04:14:50 PM 36.6594 -82.4867 318° Northwest 139 160 7,900  Level Indianapolis Center
Mon 04:15:52 PM 36.6958 -82.5242 320° Northwest 143 165 7,900  Level Indianapolis Center
Mon 04:16:54 PM 36.7269 -82.5569 320° Northwest 145 167 7,900  Level Indianapolis Center
Mon 04:17:56 PM 36.7572 -82.5878 321° Northwest 142 163 7,900  Level Indianapolis Center
Mon 04:18:59 PM 36.7875 -82.6186 321° Northwest 141 162 7,900  Level Indianapolis Center
Mon 04:20:01 PM 36.8183 -82.6506 320° Northwest 142 163 7,900  Level Indianapolis Center
Mon 04:21:03 PM 36.8486 -82.6819 320° Northwest 142 163 7,900  Level Indianapolis Center
Mon 04:22:05 PM 36.8839 -82.7175 321° Northwest 141 162 7,900  Level Indianapolis Center
Mon 04:23:07 PM 36.9144 -82.7492 320° Northwest 142 163 7,900  Level Indianapolis Center
Mon 04:24:09 PM 36.9447 -82.7811 320° Northwest 142 163 7,900  Level Indianapolis Center
Mon 04:25:11 PM 36.9750 -82.8117 321° Northwest 142 163 7,900  Level Indianapolis Center
Mon 04:26:13 PM 37.0097 -82.8483 320° Northwest 142 163 7,900  Level Indianapolis Center
Mon 04:27:15 PM 37.0406 -82.8794 321° Northwest 142 163 7,900  Level Indianapolis Center
Mon 04:28:17 PM 37.0694 -82.9103 320° Northwest 139 160 7,900  Level Indianapolis Center
Mon 04:29:19 PM 37.1003 -82.9417 321° Northwest 140 161 7,900  Level Indianapolis Center
Mon 04:30:21 PM 37.1344 -82.9778 320° Northwest 140 161 7,900  Level Indianapolis Center
Mon 04:31:23 PM 37.1647 -83.0086 321° Northwest 140 161 7,900  Level Indianapolis Center
Mon 04:32:25 PM 37.1933 -83.0389 320° Northwest 137 158 7,900  Level Indianapolis Center
Mon 04:33:27 PM 37.2219 -83.0689 320° Northwest 136 157 7,900  Level Indianapolis Center
Mon 04:34:29 PM 37.2514 -83.0997 320° Northwest 135 155 7,900  Level Indianapolis Center
Mon 04:35:31 PM 37.2822 -83.1317 321° Northwest 139 160 7,900  Level Indianapolis Center
Mon 04:36:33 PM 37.3172 -83.1683 320° Northwest 141 162 7,900  Level Indianapolis Center
Mon 04:37:35 PM 37.3464 -83.1989 320° Northwest 138 159 7,900  Level Indianapolis Center
Mon 04:38:37 PM 37.3756 -83.2292 320° Northwest 137 158 7,900  Level Indianapolis Center
Mon 04:39:40 PM 37.4047 -83.2600 320° Northwest 136 157 7,900  Level Indianapolis Center
Mon 04:40:42 PM 37.4336 -83.2908 320° Northwest 136 157 7,900  Level Indianapolis Center
Mon 04:41:44 PM 37.4656 -83.3247 320° Northwest 131 151 7,900  Level Indianapolis Center
Mon 04:42:46 PM 37.4947 -83.3553 320° Northwest 134 154 7,900  Level Indianapolis Center
Mon 04:43:48 PM 37.5253 -83.3869 321° Northwest 138 159 7,900  Level Indianapolis Center
Mon 04:44:50 PM 37.5547 -83.4175 321° Northwest 138 159 7,900  Level Indianapolis Center
Mon 04:45:52 PM 37.5833 -83.4483 320° Northwest 137 158 7,900  Level Indianapolis Center
Mon 04:46:54 PM 37.6136 -83.4803 320° Northwest 139 160 7,900  Level Indianapolis Center
Mon 04:47:56 PM 37.6489 -83.5181 320° Northwest 142 163 7,900  Level Indianapolis Center
Mon 04:48:58 PM 37.6789 -83.5506 319° Northwest 142 163 7,900  Level Indianapolis Center
Mon 04:50:00 PM 37.7103 -83.5817 322° Northwest 143 165 7,900  Level Indianapolis Center
Mon 04:51:02 PM 37.7400 -83.6147 319° Northwest 143 165 7,900  Level Indianapolis Center
Mon 04:52:04 PM 37.7706 -83.6475 320° Northwest 144 166 7,900  Level Indianapolis Center
Mon 04:53:06 PM 37.8075 -83.6847 321° Northwest 144 166 7,900  Level Indianapolis Center
Mon 04:54:08 PM 37.8364 -83.7172 318° Northwest 141 162 7,900  Level Indianapolis Center
Mon 04:55:10 PM 37.8653 -83.7469 321° Northwest 136 157 7,900  Level Indianapolis Center
Mon 04:56:12 PM 37.8944 -83.7786 319° Northwest 137 158 7,900  Level Indianapolis Center
Mon 04:57:14 PM 37.9222 -83.8092 319° Northwest 134 154 7,900  Level Indianapolis Center
Mon 04:58:16 PM 37.9556 -83.8453 320° Northwest 134 154 7,900  Level Indianapolis Center
Mon 04:59:18 PM 37.9847 -83.8750 321° Northwest 135 155 7,900  Level Indianapolis Center
Mon 05:00:20 PM 38.0128 -83.9069 318° Northwest 135 155 7,900  Level Indianapolis Center
Mon 05:01:22 PM 38.0417 -83.9375 320° Northwest 134 154 7,900  Level Indianapolis Center
Mon 05:02:24 PM 38.0706 -83.9681 320° Northwest 134 154 7,900  Level Indianapolis Center
Mon 05:03:26 PM 38.0989 -83.9989 319° Northwest 134 154 7,900  Level Indianapolis Center
Mon 05:04:28 PM 38.1331 -84.0339 321° Northwest 135 155 7,900  Level Indianapolis Center
Mon 05:05:30 PM 38.1603 -84.0653 318° Northwest 133 153 7,900  Level Indianapolis Center
Mon 05:06:32 PM 38.1883 -84.0939 321° Northwest 130 150 7,900  Level Indianapolis Center
Mon 05:07:34 PM 38.2172 -84.1250 320° Northwest 134 154 7,900  Level Indianapolis Center
Mon 05:08:35 PM 38.2439 -84.1542 319° Northwest 129 148 7,900  Level Indianapolis Center
Mon 05:09:37 PM 38.2725 -84.1850 320° Northwest 132 152 7,900  Level Indianapolis Center
Mon 05:10:39 PM 38.3058 -84.2217 319° Northwest 135 155 7,900  Level Indianapolis Center
Mon 05:11:41 PM 38.3350 -84.2517 321° Northwest 135 155 7,900  Level Indianapolis Center
Mon 05:12:43 PM 38.3619 -84.2806 320° Northwest 129 148 7,900  Level Indianapolis Center
Mon 05:13:45 PM 38.3906 -84.3119 319° Northwest 133 153 7,900  Level Indianapolis Center
Mon 05:14:47 PM 38.4183 -84.3442 318° Northwest 135 155 7,900  Level Indianapolis Center
Mon 05:15:49 PM 38.4481 -84.3739 322° Northwest 135 155 7,900  Level Indianapolis Center
Mon 05:16:50 PM 38.4794 -84.4094 318° Northwest 131 151 7,900  Level Indianapolis Center
Mon 05:17:52 PM 38.5075 -84.4400 320° Northwest 131 151 7,900  Level Indianapolis Center
Mon 05:18:54 PM 38.5358 -84.4717 319° Northwest 134 154 7,900  Level Indianapolis Center
Mon 05:19:56 PM 38.5647 -84.5025 320° Northwest 135 155 7,900  Level Indianapolis Center
Mon 05:20:58 PM 38.5925 -84.5344 318° Northwest 134 154 7,900  Level Indianapolis Center
Mon 05:22:00 PM 38.6211 -84.5656 320° Northwest 135 155 7,900  Level Indianapolis Center
Mon 05:23:02 PM 38.6547 -84.5994 322° Northwest 133 153 7,900  Level Indianapolis Center
Mon 05:24:04 PM 38.6775 -84.6256 318° Northwest 131 151 7,900  Level Indianapolis Center
Mon 05:25:05 PM 38.7106 -84.6631 318° Northwest 132 152 7,900  Level Indianapolis Center
Mon 05:26:07 PM 38.7375 -84.6933 319° Northwest 131 151 7,900  Level Indianapolis Center
Mon 05:27:09 PM 38.7667 -84.7244 320° Northwest 136 157 7,900  Level Indianapolis Center
Mon 05:28:11 PM 38.7956 -84.7572 319° Northwest 140 161 7,900  Level Indianapolis Center
Mon 05:29:13 PM 38.8231 -84.7864 320° Northwest 129 148 7,900  Level Indianapolis Center
Mon 05:30:15 PM 38.8517 -84.8192 318° Northwest 138 159 7,900  Level Indianapolis Center
Mon 05:31:17 PM 38.8850 -84.8558 319° Northwest 132 152 7,900  Level Indianapolis Center
Mon 05:32:18 PM 38.9131 -84.8881 318° Northwest 135 155 7,900  Level Indianapolis Center
Mon 05:33:20 PM 38.9411 -84.9186 320° Northwest 134 154 7,900  Level Indianapolis Center
Mon 05:34:22 PM 38.9667 -84.9486 318° Northwest 128 147 7,900  Level Indianapolis Center
Mon 05:36:28 PM 39.0333 -85.0167 322° Northwest 141 162 7,900  Level Cincinnati TRACON
Mon 05:37:28 PM 39.0572 -85.0483 314° West 137 158 7,900  Level Indianapolis Center
Mon 05:38:30 PM 39.0861 -85.0800 320° Northwest 136 157 7,900  Level Indianapolis Center
Mon 05:39:32 PM 39.1153 -85.1117 320° Northwest 137 158 7,900  Level Indianapolis Center
Mon 05:40:34 PM 39.1433 -85.1442 318° Northwest 138 159 7,900  Level Indianapolis Center
Mon 05:41:36 PM 39.1725 -85.1769 319° Northwest 139 160 7,900  Level Indianapolis Center
Mon 05:42:38 PM 39.2022 -85.2092 320° Northwest 140 161 7,900  Level Indianapolis Center
Mon 05:43:40 PM 39.2375 -85.2503 318° Northwest 143 165 7,900  Level Indianapolis Center
Mon 05:44:42 PM 39.2669 -85.2831 319° Northwest 141 162 7,900  Level Indianapolis Center
Mon 05:45:44 PM 39.2967 -85.3161 319° Northwest 142 163 7,900  Level Indianapolis Center
Mon 05:46:46 PM 39.3250 -85.3481 319° Northwest 137 158 7,900  Level Indianapolis Center
Mon 05:47:48 PM 39.3525 -85.3794 319° Northwest 133 153 7,900  Level Indianapolis Center
Mon 05:48:50 PM 39.3858 -85.4172 319° Northwest 132 152 7,900  Level Indianapolis Center
Mon 05:49:52 PM 39.4119 -85.4483 317° Northwest 131 151 7,900 -49 Level Indianapolis Center
Mon 05:50:53 PM 39.4392 -85.4803 318° Northwest 131 151 7,800 -49 Descending Indianapolis Center
Mon 05:51:55 PM 39.4678 -85.5111 320° Northwest 134 154 7,800 -290 Level Indianapolis Center
Mon 05:52:57 PM 39.4972 -85.5444 319° Northwest 141 162 7,200 -532 Descending Indianapolis Center
Mon 05:53:59 PM 39.5294 -85.5808 319° Northwest 150 173 6,700 -532 Descending Indianapolis Center
Mon 05:55:01 PM 39.5692 -85.6267 318° Northwest 156 180 6,100 -532 Descending Indianapolis Center
Mon 05:56:03 PM 39.6028 -85.6656 318° Northwest 159 183 5,600 -532 Descending Indianapolis Center
Mon 05:57:05 PM 39.6350 -85.7042 317° Northwest 160 184 5,000 -532 Descending Indianapolis Center
Mon 05:58:07 PM 39.6658 -85.7378 320° Northwest 154 177 4,500 -484 Descending Indianapolis Center
Mon 05:59:09 PM 39.6975 -85.7742 319° Northwest 151 174 4,000 -532 Descending Indianapolis Center
Mon 06:00:11 PM 39.7286 -85.8106 318° Northwest 151 174 3,400 -532 Descending Indianapolis Center
Mon 06:01:13 PM 39.7678 -85.8550 319° Northwest 154 177 2,900 -242 Descending Indianapolis Center
Mon 06:02:15 PM 39.7989 -85.8894 320° Northwest 153 176 2,900  Level Indianapolis Center
Mon 06:03:17 PM 39.8278 -85.9247 317° Northwest 148 170 2,900  Level Indianapolis Center
Mon 06:04:19 PM 39.8564 -85.9558 320° Northwest 146 168 2,900  Level Indianapolis Center
Mon 06:06:00 PM 39.9063 -86.0063 323° Northwest  Level FlightAware Approximate
Mon 06:13:00 PM 39.9333 -86.0333 323° Northwest  Level FlightAware Approximate
Mon 06:14:00 PM 39.9352 -86.0449 323° Northwest  Level Estimated

Login

Don't have an account? Register now (free) for customized features, flight alerts, and more!